Time;durP1;ratioP1;P1;durP2;ratioP2;P2;SDS_P1;SDS_P2;PMS_P1;PMS_P2;Temp;Humidity;BMP_temperature;BMP_pressure;BME280_temperature;BME280_humidity;BME280_pressure;Samples;Min_cycle;Max_cycle;Signal;HPM_P1;HPM_P2
2021/07/10 00:00:29;;;;;;;0.50;0.50;;;19.40;99.90;;;;;;5066171;28;20189;-71
2021/07/10 00:02:55;;;;;;;0.57;0.50;;;19.30;99.90;;;;;;5062160;28;20272;-71
2021/07/10 00:05:21;;;;;;;1.00;0.60;;;19.40;99.90;;;;;;5064063;28;21080;-72
2021/07/10 00:07:48;;;;;;;0.43;0.43;;;19.40;99.90;;;;;;5047060;28;20203;-72
2021/07/10 00:10:16;;;;;;;0.38;0.38;;;19.50;99.90;;;;;;5060385;28;20284;-72
2021/07/10 00:12:42;;;;;;;0.63;0.63;;;19.40;99.90;;;;;;5060707;28;20659;-71
2021/07/10 00:15:15;;;;;;;0.30;0.30;;;19.40;99.90;;;;;;5062485;28;20211;-72
2021/07/10 00:17:41;;;;;;;0.60;0.60;;;19.40;99.90;;;;;;5057549;28;20284;-72
2021/07/10 00:20:09;;;;;;;2.65;1.20;;;19.40;99.90;;;;;;5044374;28;20284;-72
2021/07/10 00:22:34;;;;;;;0.68;0.68;;;19.50;99.90;;;;;;5045978;28;20199;-72
2021/07/10 00:25:01;;;;;;;0.68;0.57;;;19.40;99.90;;;;;;5061736;28;20276;-71
2021/07/10 00:27:26;;;;;;;0.68;0.68;;;19.40;99.90;;;;;;5062937;28;20512;-72
2021/07/10 00:29:52;;;;;;;0.52;0.45;;;19.40;99.90;;;;;;5061149;28;20193;-72
2021/07/10 00:32:18;;;;;;;0.30;0.30;;;19.40;99.90;;;;;;5061166;28;20205;-73
2021/07/10 00:34:44;;;;;;;0.55;0.40;;;19.40;99.90;;;;;;5061357;28;20201;-72
2021/07/10 00:37:09;;;;;;;0.40;0.40;;;19.40;99.90;;;;;;5064302;28;21111;-72
2021/07/10 00:39:35;;;;;;;1.10;0.65;;;19.40;99.90;;;;;;5063216;28;20207;-72
2021/07/10 00:42:01;;;;;;;0.82;0.80;;;19.40;99.90;;;;;;5064772;28;20193;-72
2021/07/10 00:44:26;;;;;;;0.40;0.40;;;19.40;99.90;;;;;;5044442;28;20220;-72
2021/07/10 00:46:52;;;;;;;0.40;0.40;;;19.40;99.90;;;;;;5064916;28;20231;-72
2021/07/10 00:49:18;;;;;;;0.40;0.40;;;19.40;99.90;;;;;;5042732;28;20237;-72
2021/07/10 00:51:44;;;;;;;1.77;0.90;;;19.40;99.90;;;;;;5047216;28;20197;-71
2021/07/10 00:54:10;;;;;;;3.20;1.00;;;19.40;99.90;;;;;;5061332;28;20277;-72
2021/07/10 00:56:36;;;;;;;1.58;1.48;;;19.30;99.90;;;;;;5063379;28;20222;-72
2021/07/10 00:59:02;;;;;;;1.17;0.73;;;19.30;99.90;;;;;;5059268;28;20283;-72
2021/07/10 01:01:29;;;;;;;1.65;0.93;;;19.30;99.90;;;;;;5044559;28;20234;-71
2021/07/10 01:03:55;;;;;;;0.63;0.52;;;19.30;99.90;;;;;;5055746;28;20247;-71
2021/07/10 01:06:20;;;;;;;0.50;0.50;;;19.30;99.90;;;;;;5044583;28;20568;-72
2021/07/10 01:08:48;;;;;;;0.50;0.50;;;19.30;99.90;;;;;;5060308;28;20207;-72
2021/07/10 01:11:14;;;;;;;0.30;0.30;;;19.30;99.90;;;;;;5064604;28;20714;-72
2021/07/10 01:13:40;;;;;;;0.70;0.70;;;19.30;99.90;;;;;;5062531;28;20201;-72
2021/07/10 01:16:06;;;;;;;0.70;0.60;;;19.30;99.90;;;;;;5062350;28;20193;-72
2021/07/10 01:18:32;;;;;;;1.13;0.90;;;19.20;99.90;;;;;;5062765;28;20874;-72
2021/07/10 01:20:59;;;;;;;0.50;0.50;;;19.20;99.90;;;;;;5061187;28;20262;-71
2021/07/10 01:23:25;;;;;;;0.68;0.68;;;19.10;99.90;;;;;;5062286;28;20752;-72
2021/07/10 01:25:51;;;;;;;0.25;0.25;;;19.20;99.90;;;;;;5065244;28;20197;-72
2021/07/10 01:28:18;;;;;;;0.75;0.68;;;19.20;99.90;;;;;;5065310;28;20211;-72
2021/07/10 01:30:46;;;;;;;0.90;0.70;;;19.10;99.90;;;;;;5064506;28;20212;-72
2021/07/10 01:33:12;;;;;;;0.85;0.70;;;19.10;99.90;;;;;;5063816;28;20687;-72
2021/07/10 01:35:40;;;;;;;0.40;0.40;;;19.10;99.90;;;;;;5044414;28;20205;-72
2021/07/10 01:38:08;;;;;;;0.55;0.55;;;19.10;99.90;;;;;;5045785;28;20270;-72
2021/07/10 01:40:35;;;;;;;0.57;0.57;;;19.00;99.90;;;;;;5064147;28;20192;-73
2021/07/10 01:43:06;;;;;;;0.50;0.50;;;18.90;99.90;;;;;;5062750;28;20274;-72
2021/07/10 01:45:33;;;;;;;0.70;0.60;;;18.70;99.90;;;;;;5062021;28;20207;-73
2021/07/10 01:48:00;;;;;;;0.35;0.35;;;18.60;99.90;;;;;;5047493;28;20247;-72
2021/07/10 01:50:27;;;;;;;0.55;0.50;;;18.50;99.90;;;;;;5063103;28;20197;-72
2021/07/10 01:52:53;;;;;;;1.13;0.93;;;18.40;99.90;;;;;;5063636;28;20197;-73
2021/07/10 01:55:19;;;;;;;0.55;0.55;;;18.40;99.90;;;;;;5059297;28;20650;-72
2021/07/10 01:57:46;;;;;;;0.47;0.43;;;18.30;99.90;;;;;;5064568;28;20205;-73
2021/07/10 02:00:22;;;;;;;0.40;0.40;;;18.20;99.90;;;;;;5043329;28;20204;-73
2021/07/10 02:02:49;;;;;;;13.65;0.90;;;18.00;99.90;;;;;;5045220;28;20197;-73
2021/07/10 02:05:18;;;;;;;0.73;0.73;;;17.90;99.90;;;;;;5034304;28;20237;-72
2021/07/10 02:07:45;;;;;;;0.93;0.70;;;17.70;99.90;;;;;;5043467;28;20929;-73
2021/07/10 02:10:13;;;;;;;0.32;0.32;;;17.70;99.90;;;;;;5042292;28;21268;-73
2021/07/10 02:12:50;;;;;;;0.40;0.40;;;17.60;99.90;;;;;;5026145;28;21445;-73
2021/07/10 02:15:17;;;;;;;1.17;0.75;;;17.60;99.90;;;;;;5018346;28;20205;-73
2021/07/10 02:17:44;;;;;;;0.60;0.60;;;17.50;99.90;;;;;;5025910;28;20224;-73
2021/07/10 02:20:17;;;;;;;0.98;0.70;;;17.50;99.90;;;;;;5040602;28;20190;-74
2021/07/10 02:22:44;;;;;;;0.63;0.63;;;17.40;99.90;;;;;;5043503;28;20225;-74
2021/07/10 02:25:11;;;;;;;0.40;0.40;;;17.40;99.90;;;;;;5040780;28;20197;-73
2021/07/10 02:27:37;;;;;;;0.60;0.60;;;17.30;99.90;;;;;;5043002;28;20321;-73
2021/07/10 02:30:09;;;;;;;0.50;0.50;;;17.30;99.90;;;;;;5042004;28;20209;-74
2021/07/10 02:32:36;;;;;;;0.60;0.60;;;17.30;99.90;;;;;;5038749;28;20193;-73
2021/07/10 02:35:04;;;;;;;0.80;0.70;;;17.30;99.90;;;;;;5025392;28;20189;-74
2021/07/10 02:37:31;;;;;;;0.47;0.47;;;17.30;99.90;;;;;;5042511;28;20236;-72
2021/07/10 02:39:56;;;;;;;0.47;0.47;;;17.30;99.90;;;;;;5043270;28;20190;-72
2021/07/10 02:42:22;;;;;;;0.50;0.50;;;17.20;99.90;;;;;;5040192;28;20240;-72
2021/07/10 02:44:48;;;;;;;0.50;0.50;;;17.20;99.90;;;;;;5042448;28;20200;-72
2021/07/10 02:47:14;;;;;;;0.70;0.70;;;17.10;99.90;;;;;;5040925;28;20205;-72
2021/07/10 02:49:40;;;;;;;0.45;0.45;;;17.10;99.90;;;;;;5023857;28;20203;-72
2021/07/10 02:52:08;;;;;;;1.60;0.75;;;17.10;99.90;;;;;;5029206;28;20224;-72
2021/07/10 02:54:37;;;;;;;0.90;0.55;;;17.10;99.90;;;;;;5041948;28;20693;-72
2021/07/10 02:57:03;;;;;;;0.93;0.70;;;17.10;99.90;;;;;;5044279;28;20213;-72
2021/07/10 02:59:30;;;;;;;0.47;0.47;;;17.10;99.90;;;;;;5043332;28;20206;-73
2021/07/10 03:01:56;;;;;;;1.00;0.80;;;17.00;99.90;;;;;;5039807;28;20276;-72
2021/07/10 03:04:22;;;;;;;1.33;1.08;;;17.00;99.90;;;;;;5024606;28;20285;-72
2021/07/10 03:06:48;;;;;;;0.50;0.50;;;17.00;99.90;;;;;;5059594;28;20192;-72
2021/07/10 03:09:13;;;;;;;0.55;0.55;;;16.90;99.90;;;;;;5060722;28;20200;-72
2021/07/10 03:11:39;;;;;;;1.05;0.68;;;16.90;99.90;;;;;;5061661;28;20196;-71
2021/07/10 03:14:05;;;;;;;1.95;0.88;;;16.90;99.90;;;;;;5058321;28;20965;-72
2021/07/10 03:16:30;;;;;;;0.57;0.57;;;16.90;99.90;;;;;;5057213;28;20613;-72
2021/07/10 03:18:56;;;;;;;0.70;0.52;;;16.80;99.90;;;;;;5057293;28;20193;-71
2021/07/10 03:21:22;;;;;;;0.57;0.57;;;16.80;99.90;;;;;;5062194;28;20195;-72
2021/07/10 03:23:47;;;;;;;2.70;0.70;;;16.70;99.90;;;;;;5056394;28;20197;-71
2021/07/10 03:26:13;;;;;;;0.50;0.50;;;16.70;99.90;;;;;;5059135;28;20203;-71
2021/07/10 03:28:40;;;;;;;0.90;0.90;;;16.70;99.90;;;;;;5039816;28;20197;-71
2021/07/10 03:31:06;;;;;;;0.60;0.55;;;16.60;99.90;;;;;;5040342;28;20196;-72
2021/07/10 03:33:36;;;;;;;0.93;0.73;;;16.60;99.90;;;;;;5061244;28;20218;-72
2021/07/10 03:36:02;;;;;;;0.40;0.40;;;16.60;99.90;;;;;;5064730;28;20200;-71
2021/07/10 03:38:28;;;;;;;0.75;0.75;;;16.50;99.90;;;;;;5042154;28;20235;-72
2021/07/10 03:40:54;;;;;;;0.50;0.50;;;16.40;99.90;;;;;;5043238;28;20323;-72
2021/07/10 03:43:20;;;;;;;2.10;0.68;;;16.40;99.90;;;;;;5048872;28;20193;-72
2021/07/10 03:45:45;;;;;;;0.47;0.47;;;16.40;99.90;;;;;;5063955;28;20205;-72
2021/07/10 03:48:11;;;;;;;1.85;0.75;;;16.40;99.90;;;;;;5064021;28;20192;-72
2021/07/10 03:50:37;;;;;;;0.70;0.70;;;16.30;99.90;;;;;;5048962;28;20203;-72
2021/07/10 03:53:03;;;;;;;0.63;0.63;;;16.30;99.90;;;;;;5067339;28;20228;-71
2021/07/10 03:55:30;;;;;;;1.05;0.80;;;16.30;99.90;;;;;;5063859;28;20208;-73
2021/07/10 03:57:55;;;;;;;0.70;0.70;;;16.30;99.90;;;;;;5062874;28;20216;-71
2021/07/10 04:00:22;;;;;;;0.55;0.55;;;16.30;99.90;;;;;;5064944;28;20208;-72
2021/07/10 04:02:49;;;;;;;1.67;1.45;;;16.30;99.90;;;;;;5046664;28;20193;-72
2021/07/10 04:05:15;;;;;;;0.82;0.82;;;16.30;99.90;;;;;;5065778;28;20225;-71
2021/07/10 04:07:40;;;;;;;0.40;0.40;;;16.20;99.90;;;;;;5047316;28;20873;-72
2021/07/10 04:10:08;;;;;;;0.73;0.73;;;16.20;99.90;;;;;;5065140;28;20192;-72
2021/07/10 04:12:34;;;;;;;0.85;0.80;;;16.20;99.90;;;;;;5066121;28;20197;-72
2021/07/10 04:15:00;;;;;;;0.50;0.50;;;16.20;99.90;;;;;;5062479;28;20186;-72
2021/07/10 04:17:31;;;;;;;0.65;0.65;;;16.20;99.90;;;;;;5066009;28;20571;-73
2021/07/10 04:19:57;;;;;;;0.70;0.70;;;16.20;99.90;;;;;;5062894;28;20189;-71
2021/07/10 04:22:24;;;;;;;0.85;0.80;;;16.20;99.90;;;;;;5045491;28;20209;-72
2021/07/10 04:24:50;;;;;;;0.60;0.60;;;16.10;99.90;;;;;;5065773;28;20195;-72
2021/07/10 04:27:16;;;;;;;0.57;0.57;;;16.10;99.90;;;;;;5063057;28;20631;-72
2021/07/10 04:29:44;;;;;;;0.50;0.50;;;16.10;99.90;;;;;;5047614;28;20201;-72
2021/07/10 04:32:11;;;;;;;4.60;1.00;;;16.00;99.90;;;;;;5045084;28;20211;-72
2021/07/10 04:34:36;;;;;;;1.10;1.00;;;16.00;99.90;;;;;;5062582;28;20651;-72
2021/07/10 04:37:02;;;;;;;0.70;0.70;;;15.90;99.90;;;;;;5043404;28;20255;-73
2021/07/10 04:39:28;;;;;;;0.93;0.68;;;15.90;99.90;;;;;;5042895;28;20702;-72
2021/07/10 04:41:53;;;;;;;0.60;0.60;;;15.90;99.90;;;;;;5063928;28;20762;-71
2021/07/10 04:44:19;;;;;;;12.13;1.38;;;15.80;99.90;;;;;;5065052;28;20201;-71
2021/07/10 04:46:45;;;;;;;0.60;0.60;;;15.90;99.90;;;;;;5047507;28;20210;-72
2021/07/10 04:49:11;;;;;;;0.55;0.55;;;15.80;99.90;;;;;;5062053;28;20223;-72
2021/07/10 04:51:36;;;;;;;0.85;0.85;;;15.80;99.90;;;;;;5063547;28;20283;-71
2021/07/10 04:54:02;;;;;;;1.10;0.68;;;15.80;99.90;;;;;;5063574;28;20254;-72
2021/07/10 04:56:28;;;;;;;0.82;0.82;;;15.80;99.90;;;;;;5059446;28;20307;-73
2021/07/10 04:58:54;;;;;;;3.60;1.33;;;15.80;99.90;;;;;;5044211;28;20610;-72
2021/07/10 05:01:20;;;;;;;0.50;0.50;;;15.80;99.90;;;;;;5061392;28;20194;-72
2021/07/10 05:03:45;;;;;;;0.70;0.70;;;15.90;99.90;;;;;;5062218;28;20220;-72
2021/07/10 05:06:11;;;;;;;1.27;0.95;;;15.90;99.90;;;;;;5063145;28;20225;-72
2021/07/10 05:08:37;;;;;;;1.10;0.70;;;15.90;99.90;;;;;;5060904;28;20204;-72
2021/07/10 05:11:03;;;;;;;0.70;0.70;;;15.90;99.90;;;;;;5064831;28;20251;-73
2021/07/10 05:13:29;;;;;;;0.57;0.57;;;15.90;99.90;;;;;;5061946;28;20208;-73
2021/07/10 05:15:54;;;;;;;0.60;0.60;;;15.90;99.90;;;;;;5061187;28;20200;-73
2021/07/10 05:18:20;;;;;;;0.60;0.52;;;15.90;99.90;;;;;;5062320;28;20216;-72
2021/07/10 05:20:47;;;;;;;0.80;0.75;;;15.90;99.90;;;;;;5063610;28;20686;-72
2021/07/10 05:23:13;;;;;;;0.60;0.60;;;15.80;99.90;;;;;;5045283;28;20206;-73
2021/07/10 05:25:39;;;;;;;0.60;0.60;;;15.90;99.90;;;;;;5064106;28;20644;-72
2021/07/10 05:28:04;;;;;;;0.85;0.70;;;15.90;99.90;;;;;;5064548;28;20227;-72
2021/07/10 05:30:30;;;;;;;0.57;0.55;;;15.90;99.90;;;;;;5063189;28;20193;-73
2021/07/10 05:32:56;;;;;;;0.90;0.88;;;15.90;99.90;;;;;;5045597;28;20277;-73
2021/07/10 05:35:23;;;;;;;0.65;0.65;;;15.90;99.90;;;;;;5061231;28;20280;-72
2021/07/10 05:37:49;;;;;;;0.68;0.68;;;15.80;99.90;;;;;;5064554;28;20227;-73
2021/07/10 05:40:16;;;;;;;0.85;0.85;;;15.80;99.90;;;;;;5061932;28;20196;-73
2021/07/10 05:42:42;;;;;;;0.40;0.40;;;15.80;99.90;;;;;;5045662;28;20211;-73
2021/07/10 05:45:09;;;;;;;2.72;1.40;;;15.80;99.90;;;;;;5061589;28;20666;-73
2021/07/10 05:47:35;;;;;;;1.73;1.15;;;15.80;99.90;;;;;;5065480;28;20203;-72
2021/07/10 05:50:02;;;;;;;0.88;0.88;;;15.80;99.90;;;;;;5062006;28;20205;-72
2021/07/10 05:52:27;;;;;;;1.05;1.05;;;15.70;99.90;;;;;;5043458;28;20200;-72
2021/07/10 05:54:53;;;;;;;0.40;0.40;;;15.70;99.90;;;;;;5059748;28;20665;-72
2021/07/10 05:57:19;;;;;;;1.25;1.15;;;15.70;99.90;;;;;;5059659;28;20202;-72
2021/07/10 05:59:45;;;;;;;0.50;0.50;;;15.70;99.90;;;;;;5062038;28;20201;-72
2021/07/10 06:02:10;;;;;;;1.33;0.90;;;15.80;99.90;;;;;;5051592;28;20189;-72
2021/07/10 06:04:36;;;;;;;0.60;0.60;;;15.80;99.90;;;;;;5040193;28;20335;-73
2021/07/10 06:07:03;;;;;;;0.68;0.68;;;15.90;99.90;;;;;;5061335;28;20202;-72
2021/07/10 06:09:29;;;;;;;0.47;0.47;;;16.00;99.90;;;;;;5041903;28;20200;-72
2021/07/10 06:11:56;;;;;;;0.68;0.68;;;16.00;99.90;;;;;;5061250;28;20217;-73
2021/07/10 06:14:21;;;;;;;0.50;0.50;;;16.00;99.90;;;;;;5042462;28;20537;-72
2021/07/10 06:16:47;;;;;;;0.73;0.73;;;15.90;99.90;;;;;;5061420;28;20203;-72
2021/07/10 06:19:13;;;;;;;0.40;0.40;;;15.90;99.90;;;;;;5043579;28;20216;-72
2021/07/10 06:21:39;;;;;;;3.78;1.02;;;15.90;99.90;;;;;;5062474;28;20655;-72
2021/07/10 06:24:05;;;;;;;0.57;0.57;;;15.90;99.90;;;;;;5058089;28;20663;-72
2021/07/10 06:26:30;;;;;;;0.40;0.40;;;15.80;99.90;;;;;;5061434;28;20666;-72
2021/07/10 06:28:56;;;;;;;1.75;1.20;;;15.90;99.90;;;;;;5061716;28;20279;-72
2021/07/10 06:31:22;;;;;;;0.40;0.40;;;15.80;99.90;;;;;;5042424;28;20200;-72
2021/07/10 06:33:48;;;;;;;1.33;1.20;;;15.80;99.90;;;;;;5060114;28;20377;-72
2021/07/10 06:36:14;;;;;;;1.75;0.82;;;15.80;99.90;;;;;;5061660;28;20201;-72
2021/07/10 06:38:40;;;;;;;0.70;0.70;;;15.80;99.90;;;;;;5059502;28;20288;-72
2021/07/10 06:41:06;;;;;;;0.70;0.70;;;15.80;99.90;;;;;;5036854;28;20301;-72
2021/07/10 06:43:32;;;;;;;0.47;0.47;;;15.90;99.90;;;;;;5034257;28;20204;-72
2021/07/10 06:45:58;;;;;;;0.40;0.40;;;15.80;99.90;;;;;;5057574;28;20197;-73
2021/07/10 06:48:24;;;;;;;0.50;0.50;;;15.80;99.90;;;;;;5056950;28;21833;-73
2021/07/10 06:50:50;;;;;;;0.82;0.82;;;15.80;99.90;;;;;;5057665;28;20222;-74
2021/07/10 06:53:21;;;;;;;0.55;0.55;;;15.70;99.90;;;;;;5039128;28;20247;-73
2021/07/10 06:55:48;;;;;;;0.40;0.40;;;15.70;99.90;;;;;;5059061;28;20662;-73
2021/07/10 06:58:14;;;;;;;0.70;0.70;;;15.80;99.90;;;;;;5052301;28;20212;-73
2021/07/10 07:00:40;;;;;;;0.70;0.70;;;15.90;99.90;;;;;;5052850;28;20200;-74
2021/07/10 07:03:05;;;;;;;1.13;1.05;;;16.00;99.90;;;;;;5051248;28;20352;-74
2021/07/10 07:05:31;;;;;;;0.57;0.57;;;16.00;99.90;;;;;;5051364;28;20320;-74
2021/07/10 07:07:57;;;;;;;0.70;0.70;;;15.90;99.90;;;;;;5034346;28;20204;-72
2021/07/10 07:10:22;;;;;;;1.20;1.10;;;16.00;99.90;;;;;;5048867;28;20213;-73
2021/07/10 07:12:48;;;;;;;0.82;0.82;;;15.90;99.90;;;;;;5034400;28;20197;-73
2021/07/10 07:15:14;;;;;;;0.68;0.68;;;15.90;99.90;;;;;;5052366;28;20741;-74
2021/07/10 07:17:40;;;;;;;0.70;0.70;;;15.90;99.90;;;;;;5050176;28;20205;-73
2021/07/10 07:20:10;;;;;;;0.55;0.55;;;16.00;99.90;;;;;;5051743;28;20784;-74
2021/07/10 07:22:36;;;;;;;0.63;0.60;;;16.10;99.90;;;;;;5054132;28;20516;-74
2021/07/10 07:25:03;;;;;;;1.42;1.15;;;16.20;99.90;;;;;;5029601;28;20239;-74
2021/07/10 07:27:29;;;;;;;0.40;0.40;;;16.30;99.90;;;;;;5048439;28;20197;-74
2021/07/10 07:29:54;;;;;;;0.40;0.40;;;16.30;99.90;;;;;;5050773;28;20200;-75
2021/07/10 07:32:20;;;;;;;0.32;0.32;;;16.30;99.90;;;;;;5053698;28;20259;-73
2021/07/10 07:34:47;;;;;;;0.75;0.75;;;16.40;99.90;;;;;;5038668;28;20904;-72
2021/07/10 07:37:16;;;;;;;0.60;0.60;;;16.40;99.90;;;;;;5054292;28;20279;-74
2021/07/10 07:39:46;;;;;;;0.70;0.70;;;16.40;99.90;;;;;;5060569;28;21859;-73
2021/07/10 07:42:13;;;;;;;0.82;0.80;;;16.40;99.90;;;;;;5040876;28;20224;-73
2021/07/10 07:44:40;;;;;;;0.57;0.57;;;16.40;99.90;;;;;;5055366;28;20194;-74
2021/07/10 07:47:07;;;;;;;0.50;0.50;;;16.50;99.90;;;;;;5036904;28;20201;-75
2021/07/10 07:49:33;;;;;;;0.50;0.50;;;16.50;99.90;;;;;;5033898;28;20699;-73
2021/07/10 07:51:59;;;;;;;0.60;0.50;;;16.60;99.90;;;;;;5048412;28;20471;-74
2021/07/10 07:54:27;;;;;;;0.40;0.40;;;16.60;99.90;;;;;;5051238;28;20492;-75
2021/07/10 07:56:53;;;;;;;0.80;0.65;;;16.60;99.90;;;;;;5053290;28;20192;-75
2021/07/10 07:59:19;;;;;;;0.73;0.70;;;16.50;99.90;;;;;;5037384;28;20203;-74
2021/07/10 08:01:46;;;;;;;0.40;0.40;;;16.50;99.90;;;;;;5034419;28;20204;-77
2021/07/10 08:04:11;;;;;;;0.40;0.40;;;16.60;99.90;;;;;;5052219;28;20202;-76
2021/07/10 08:06:37;;;;;;;0.50;0.50;;;16.60;99.90;;;;;;5037170;28;20674;-76
2021/07/10 08:09:04;;;;;;;0.40;0.40;;;16.50;99.90;;;;;;5054423;28;21288;-75
2021/07/10 08:11:29;;;;;;;0.70;0.70;;;16.60;99.90;;;;;;5038702;28;20193;-75
2021/07/10 08:13:56;;;;;;;0.30;0.30;;;16.60;99.90;;;;;;5037085;28;20208;-75
2021/07/10 08:16:22;;;;;;;0.38;0.38;;;16.60;99.90;;;;;;5056641;28;20250;-74
2021/07/10 08:18:47;;;;;;;0.50;0.50;;;16.60;99.90;;;;;;5036162;28;20200;-76
2021/07/10 08:21:13;;;;;;;0.40;0.40;;;16.70;99.90;;;;;;5058230;28;20193;-77
2021/07/10 08:23:40;;;;;;;0.50;0.50;;;16.80;99.90;;;;;;5038042;28;20193;-76
2021/07/10 08:26:06;;;;;;;0.30;0.30;;;17.00;99.90;;;;;;5058681;28;20204;-75
2021/07/10 08:28:32;;;;;;;0.40;0.40;;;17.00;99.90;;;;;;5060022;28;20201;-76
2021/07/10 08:30:58;;;;;;;0.60;0.60;;;17.10;99.90;;;;;;5041511;28;20197;-76
2021/07/10 08:33:24;;;;;;;0.60;0.60;;;17.10;99.90;;;;;;5041276;28;20220;-76
2021/07/10 08:35:50;;;;;;;0.50;0.50;;;17.20;99.90;;;;;;5060660;28;20230;-77
2021/07/10 08:38:16;;;;;;;0.75;0.68;;;17.60;99.90;;;;;;5061097;28;20232;-76
2021/07/10 08:40:42;;;;;;;1.40;0.65;;;17.90;99.90;;;;;;5061034;28;20201;-76
2021/07/10 08:43:08;;;;;;;0.65;0.60;;;18.10;99.90;;;;;;5045590;28;20197;-75
2021/07/10 08:45:35;;;;;;;0.50;0.50;;;18.30;99.90;;;;;;5057308;28;20615;-77
2021/07/10 08:48:03;;;;;;;0.45;0.45;;;18.30;99.90;;;;;;5039276;28;20203;-77
2021/07/10 08:50:29;;;;;;;0.40;0.40;;;18.10;99.90;;;;;;5059805;28;20232;-76
2021/07/10 08:52:56;;;;;;;0.40;0.40;;;18.10;99.90;;;;;;5039955;28;20295;-76
2021/07/10 08:55:22;;;;;;;0.40;0.40;;;18.20;99.90;;;;;;5041873;28;20679;-76
2021/07/10 08:57:48;;;;;;;0.30;0.30;;;18.50;99.90;;;;;;5060355;28;20564;-76
2021/07/10 09:00:17;;;;;;;0.38;0.38;;;18.60;99.90;;;;;;5054942;28;20216;-76
2021/07/10 09:02:46;;;;;;;1.02;0.88;;;18.70;99.90;;;;;;5057352;28;20250;-76
2021/07/10 09:05:12;;;;;;;0.40;0.40;;;18.80;99.90;;;;;;5054646;28;20228;-75
2021/07/10 09:08:12;;;;;;;0.52;0.52;;;18.80;99.90;;;;;;5052850;28;20193;-75
2021/07/10 09:10:39;;;;;;;0.40;0.40;;;18.80;99.90;;;;;;5057062;28;20196;-76
2021/07/10 09:13:05;;;;;;;3.08;1.13;;;18.60;99.90;;;;;;5054085;28;20222;-76
2021/07/10 09:15:32;;;;;;;0.40;0.40;;;18.60;99.90;;;;;;5055371;28;20674;-77
2021/07/10 09:17:58;;;;;;;0.35;0.35;;;18.70;99.90;;;;;;5044075;28;20205;-75
2021/07/10 09:20:27;;;;;;;0.77;0.63;;;18.90;99.90;;;;;;5038022;28;20189;-76
2021/07/10 09:22:53;;;;;;;0.47;0.47;;;19.10;99.90;;;;;;5057154;28;20193;-77
2021/07/10 09:25:39;;;;;;;0.38;0.38;;;19.10;99.90;;;;;;5058260;28;20216;-77
2021/07/10 09:28:05;;;;;;;0.50;0.50;;;19.10;99.90;;;;;;5056946;28;20220;-74
2021/07/10 09:30:31;;;;;;;1.00;0.75;;;19.30;99.90;;;;;;5058479;28;20193;-74
2021/07/10 09:33:15;;;;;;;0.30;0.30;;;19.30;99.90;;;;;;5057142;28;20622;-75
2021/07/10 09:35:51;;;;;;;0.68;0.60;;;19.30;99.90;;;;;;5038979;28;20204;-75
2021/07/10 09:38:21;;;;;;;0.65;0.65;;;19.50;99.90;;;;;;5055832;28;20203;-75
2021/07/10 09:40:58;;;;;;;0.57;0.55;;;19.40;99.90;;;;;;5034832;28;20304;-75
2021/07/10 09:43:28;;;;;;;1.48;0.45;;;19.50;99.90;;;;;;5053868;28;20204;-75
2021/07/10 09:45:57;;;;;;;1.08;0.65;;;19.60;99.90;;;;;;5056480;28;20220;-75
2021/07/10 09:48:35;;;;;;;0.52;0.52;;;19.70;99.90;;;;;;5058936;28;20270;-74
2021/07/10 09:51:24;;;;;;;0.47;0.40;;;19.70;99.90;;;;;;5054443;28;20201;-75
2021/07/10 09:53:58;;;;;;;0.45;0.45;;;19.70;99.90;;;;;;5032065;28;20228;-73
2021/07/10 09:56:24;;;;;;;2.20;1.45;;;19.70;99.90;;;;;;5043187;28;20223;-73
2021/07/10 09:58:49;;;;;;;1.67;1.25;;;19.90;99.90;;;;;;5038773;28;20674;-73
2021/07/10 10:01:35;;;;;;;0.73;0.70;;;19.80;99.90;;;;;;5059223;28;20192;-72
2021/07/10 10:04:19;;;;;;;0.82;0.82;;;19.80;99.90;;;;;;5058813;28;20192;-73
2021/07/10 10:06:44;;;;;;;1.70;1.17;;;19.70;99.90;;;;;;5034755;28;20228;-74
2021/07/10 10:09:21;;;;;;;1.45;0.82;;;19.70;99.90;;;;;;5041014;28;20201;-74
2021/07/10 10:12:11;;;;;;;0.60;0.60;;;19.90;99.90;;;;;;5039756;28;20224;-74
2021/07/10 10:14:58;;;;;;;2.05;1.05;;;20.00;99.90;;;;;;5037304;28;20233;-70
2021/07/10 10:17:25;;;;;;;0.43;0.43;;;20.20;99.90;;;;;;5040803;28;20360;-72
2021/07/10 10:19:53;;;;;;;0.75;0.75;;;20.50;99.90;;;;;;5021387;28;20193;-73
2021/07/10 10:22:19;;;;;;;0.70;0.70;;;20.70;99.90;;;;;;5039374;28;20654;-73
2021/07/10 10:24:48;;;;;;;0.85;0.85;;;21.00;99.90;;;;;;5037067;28;20205;-73
2021/07/10 10:27:14;;;;;;;1.20;1.10;;;21.20;99.90;;;;;;5038459;28;20561;-74
2021/07/10 10:29:40;;;;;;;1.55;0.80;;;21.10;99.90;;;;;;5039004;28;20198;-74
2021/07/10 10:32:08;;;;;;;0.35;0.35;;;21.30;99.90;;;;;;5040668;28;20201;-74
2021/07/10 10:34:39;;;;;;;1.00;0.90;;;21.60;99.90;;;;;;5019560;28;20915;-72
2021/07/10 10:37:07;;;;;;;1.75;1.35;;;22.00;99.90;;;;;;5042226;28;20193;-73
2021/07/10 10:39:34;;;;;;;1.17;0.80;;;22.40;99.90;;;;;;5041042;28;20201;-74
2021/07/10 10:42:04;;;;;;;0.68;0.63;;;22.60;99.90;;;;;;5039887;28;20189;-73
2021/07/10 10:44:39;;;;;;;1.30;0.88;;;22.20;99.90;;;;;;5020423;28;20196;-75
2021/07/10 10:47:08;;;;;;;1.88;0.80;;;22.20;99.90;;;;;;5034490;28;20204;-74
2021/07/10 10:49:49;;;;;;;0.63;0.60;;;22.40;99.90;;;;;;5036397;28;20193;-74
2021/07/10 10:52:17;;;;;;;1.70;0.95;;;22.60;99.90;;;;;;5036792;28;20247;-74
2021/07/10 10:54:51;;;;;;;0.80;0.80;;;22.80;99.90;;;;;;5034666;28;20276;-73
2021/07/10 10:57:53;;;;;;;1.23;1.02;;;23.00;99.90;;;;;;5022067;28;20206;-73
2021/07/10 11:00:24;;;;;;;1.33;1.02;;;23.10;99.90;;;;;;4954704;28;20199;-74
2021/07/10 11:02:56;;;;;;;7.05;0.70;;;23.20;99.90;;;;;;5020339;28;20251;-75
2021/07/10 11:05:31;;;;;;;1.10;0.95;;;23.10;99.90;;;;;;5037002;28;20225;-74
2021/07/10 11:08:21;;;;;;;1.17;1.08;;;22.90;99.90;;;;;;5039680;28;20821;-74
2021/07/10 11:10:56;;;;;;;1.15;0.68;;;22.70;99.90;;;;;;5041596;28;20247;-75
2021/07/10 11:13:30;;;;;;;6.78;2.55;;;22.80;99.90;;;;;;5037406;28;20287;-75
2021/07/10 11:16:19;;;;;;;0.50;0.50;;;23.30;99.90;;;;;;5040387;28;20236;-74
2021/07/10 11:18:55;;;;;;;0.85;0.60;;;24.10;99.90;;;;;;5040629;28;20197;-76
2021/07/10 11:21:44;;;;;;;4.30;1.45;;;24.50;99.90;;;;;;5039200;28;20209;-77
2021/07/10 11:26:44;;;;;;;1.80;1.30;;;24.60;99.90;;;;;;5037449;28;20299;-76
2021/07/10 11:29:33;;;;;;;1.25;1.15;;;24.10;99.90;;;;;;5013098;28;20544;-76
2021/07/10 11:32:11;;;;;;;0.65;0.65;;;24.00;99.90;;;;;;5037777;28;20573;-76
2021/07/10 11:34:41;;;;;;;0.75;0.75;;;24.70;99.90;;;;;;5017285;28;20308;-77
2021/07/10 11:37:21;;;;;;;4.30;1.52;;;24.90;99.90;;;;;;5037715;28;20687;-77
2021/07/10 11:39:53;;;;;;;0.68;0.57;;;24.80;99.90;;;;;;5034585;28;21028;-78
2021/07/10 11:42:20;;;;;;;1.17;0.55;;;24.60;99.90;;;;;;5037578;28;20205;-78
2021/07/10 11:44:47;;;;;;;0.73;0.68;;;24.50;99.90;;;;;;5034231;28;20707;-78
2021/07/10 11:47:28;;;;;;;0.98;0.70;;;24.40;99.90;;;;;;5034227;28;20620;-78
2021/07/10 11:49:56;;;;;;;0.90;0.80;;;24.10;99.90;;;;;;5035438;28;20228;-77
2021/07/10 11:52:22;;;;;;;0.60;0.60;;;23.50;99.90;;;;;;5019714;28;20202;-77
2021/07/10 11:54:56;;;;;;;1.88;1.13;;;23.30;99.90;;;;;;5019787;28;20201;-78
2021/07/10 11:57:26;;;;;;;0.68;0.65;;;23.30;99.90;;;;;;5044229;28;20208;-78
2021/07/10 11:59:53;;;;;;;0.70;0.50;;;23.40;99.90;;;;;;5041558;28;20212;-77
2021/07/10 12:02:20;;;;;;;1.50;0.82;;;23.70;99.90;;;;;;5043130;28;20570;-78
2021/07/10 12:04:59;;;;;;;1.17;1.08;;;23.70;99.90;;;;;;5028027;28;20221;-76
2021/07/10 12:07:25;;;;;;;0.90;0.85;;;23.90;99.90;;;;;;5043108;28;20225;-78
2021/07/10 12:09:53;;;;;;;1.88;1.02;;;24.20;99.90;;;;;;5042874;28;20209;-76
2021/07/10 12:12:19;;;;;;;0.63;0.63;;;24.20;99.90;;;;;;5045138;28;20217;-75
2021/07/10 12:14:57;;;;;;;0.77;0.63;;;23.90;99.90;;;;;;5040873;28;20672;-80
2021/07/10 12:17:24;;;;;;;1.52;0.68;;;23.80;99.90;;;;;;5041966;28;20568;-79
2021/07/10 12:19:51;;;;;;;1.65;0.93;;;23.40;99.90;;;;;;5037506;28;20295;-78
2021/07/10 12:22:22;;;;;;;2.22;1.27;;;23.80;99.90;;;;;;5042904;28;20193;-75
2021/07/10 12:24:48;;;;;;;1.55;0.93;;;24.70;99.90;;;;;;5041451;28;20224;-74
2021/07/10 12:27:16;;;;;;;1.55;0.88;;;25.40;99.90;;;;;;5039306;28;20288;-76
2021/07/10 12:29:53;;;;;;;0.80;0.80;;;25.80;99.90;;;;;;5043184;28;20668;-78
2021/07/10 12:32:18;;;;;;;0.40;0.40;;;26.10;99.90;;;;;;5041851;28;20695;-78
2021/07/10 12:34:57;;;;;;;1.25;0.93;;;25.80;99.90;;;;;;5042298;28;20190;-78
2021/07/10 12:37:28;;;;;;;1.27;0.50;;;25.40;99.90;;;;;;5041936;28;20704;-75
2021/07/10 12:40:11;;;;;;;1.02;0.82;;;25.30;99.90;;;;;;5039564;28;20217;-80
2021/07/10 12:42:37;;;;;;;2.28;1.02;;;25.10;99.90;;;;;;5039277;28;20196;-79
2021/07/10 12:45:08;;;;;;;0.95;0.65;;;25.50;99.90;;;;;;5037976;28;20212;-77
2021/07/10 12:47:34;;;;;;;0.70;0.50;;;25.60;99.90;;;;;;5036992;28;20205;-78
2021/07/10 12:50:01;;;;;;;0.80;0.57;;;25.50;99.90;;;;;;5041805;28;20232;-77
2021/07/10 12:52:30;;;;;;;0.95;0.65;;;25.80;99.90;;;;;;5041607;28;20639;-77
2021/07/10 12:55:11;;;;;;;1.63;1.10;;;26.20;99.90;;;;;;5039748;28;20205;-78